Time;durP1;ratioP1;P1;durP2;ratioP2;P2;SDS_P1;SDS_P2;PMS_P1;PMS_P2;Temp;Humidity;BMP_temperature;BMP_pressure;BME280_temperature;BME280_humidity;BME280_pressure;Samples;Min_cycle;Max_cycle;Signal;HPM_P1;HPM_P2
2022/08/27 00:01:15;;;;;;;11.20;3.22;;;16.60;99.90;;;;;;5007206;28;20030;-74
2022/08/27 00:03:42;;;;;;;8.63;3.03;;;16.60;99.90;;;;;;4996657;28;20065;-74
2022/08/27 00:06:10;;;;;;;9.07;3.28;;;16.60;99.90;;;;;;4993206;28;20053;-75
2022/08/27 00:08:36;;;;;;;7.50;2.97;;;16.60;99.90;;;;;;4993299;28;20018;-74
2022/08/27 00:11:01;;;;;;;7.75;3.60;;;16.60;99.90;;;;;;5006204;28;20026;-74
2022/08/27 00:13:27;;;;;;;7.97;3.13;;;16.50;99.90;;;;;;5009207;28;20040;-74
2022/08/27 00:15:52;;;;;;;8.02;3.53;;;16.50;99.90;;;;;;5010289;28;20126;-75
2022/08/27 00:18:19;;;;;;;8.82;3.83;;;16.50;99.90;;;;;;5004180;28;20018;-75
2022/08/27 00:20:45;;;;;;;9.23;4.00;;;16.50;99.90;;;;;;5010832;28;20022;-75
2022/08/27 00:23:10;;;;;;;7.35;3.38;;;16.50;99.90;;;;;;5006040;28;20038;-75
2022/08/27 00:25:36;;;;;;;6.75;3.63;;;16.50;99.90;;;;;;5010561;28;20022;-76
2022/08/27 00:28:02;;;;;;;8.30;3.33;;;16.40;99.90;;;;;;5003466;28;20026;-74
2022/08/27 00:30:27;;;;;;;7.18;3.25;;;16.40;99.90;;;;;;5003072;28;20025;-74
2022/08/27 00:32:53;;;;;;;9.43;3.40;;;16.40;99.90;;;;;;4997105;28;20370;-75
2022/08/27 00:35:18;;;;;;;8.20;3.33;;;16.40;99.90;;;;;;4998749;28;20065;-74
2022/08/27 00:37:44;;;;;;;7.15;3.20;;;16.30;99.90;;;;;;4997916;28;20069;-75
2022/08/27 00:40:14;;;;;;;10.18;3.47;;;16.30;99.90;;;;;;4999884;28;20073;-75
2022/08/27 00:42:41;;;;;;;6.85;3.40;;;16.30;99.90;;;;;;5001078;28;20084;-74
2022/08/27 00:45:07;;;;;;;7.35;3.38;;;16.30;99.90;;;;;;5005614;28;20065;-75
2022/08/27 00:47:39;;;;;;;8.52;3.38;;;16.30;99.90;;;;;;5008383;28;20030;-74
2022/08/27 00:50:09;;;;;;;10.18;3.30;;;16.30;99.90;;;;;;4997884;28;20152;-74
2022/08/27 00:52:56;;;;;;;9.50;3.28;;;16.20;99.90;;;;;;5003464;28;20023;-75
2022/08/27 00:55:26;;;;;;;9.43;3.35;;;16.30;99.90;;;;;;5006081;28;20034;-74
2022/08/27 00:58:16;;;;;;;8.43;3.20;;;16.20;99.90;;;;;;5007222;28;20032;-76
2022/08/27 01:00:45;;;;;;;5.93;3.10;;;16.20;99.90;;;;;;5011910;28;20084;-74
2022/08/27 01:03:11;;;;;;;6.57;3.22;;;16.20;99.90;;;;;;5010639;28;20030;-74
2022/08/27 01:05:38;;;;;;;7.68;3.10;;;16.10;99.90;;;;;;5012693;28;20029;-75
2022/08/27 01:08:09;;;;;;;7.07;3.08;;;16.10;99.90;;;;;;5013559;28;20030;-74
2022/08/27 01:10:37;;;;;;;9.20;3.30;;;16.10;99.90;;;;;;5013662;28;20028;-75
2022/08/27 01:13:05;;;;;;;7.20;3.17;;;16.10;99.90;;;;;;5013798;28;20433;-76
2022/08/27 01:15:31;;;;;;;7.20;2.97;;;16.00;99.90;;;;;;5007941;28;20064;-76
2022/08/27 01:17:56;;;;;;;8.20;3.00;;;16.00;99.90;;;;;;4997918;28;20017;-74
2022/08/27 01:20:30;;;;;;;6.47;3.42;;;16.00;99.90;;;;;;5003811;28;20018;-75
2022/08/27 01:23:08;;;;;;;7.95;3.22;;;16.00;99.90;;;;;;5013654;28;20034;-75
2022/08/27 01:25:34;;;;;;;9.10;3.40;;;16.00;99.90;;;;;;5003821;28;20033;-74
2022/08/27 01:28:02;;;;;;;9.05;3.30;;;15.90;99.90;;;;;;5012669;28;20133;-75
2022/08/27 01:30:28;;;;;;;6.50;2.85;;;16.00;99.90;;;;;;5009639;28;20029;-75
2022/08/27 01:32:54;;;;;;;10.55;3.10;;;15.90;99.90;;;;;;5006531;28;20022;-75
2022/08/27 01:35:20;;;;;;;9.55;3.30;;;15.90;99.90;;;;;;5008813;28;20023;-74
2022/08/27 01:37:49;;;;;;;7.20;3.28;;;15.90;99.90;;;;;;5005768;28;20061;-74
2022/08/27 01:40:16;;;;;;;5.38;2.95;;;15.90;99.90;;;;;;5013404;28;20413;-75
2022/08/27 01:42:45;;;;;;;7.82;2.92;;;15.90;99.90;;;;;;5012911;28;20100;-75
2022/08/27 01:45:15;;;;;;;8.70;3.25;;;15.90;99.90;;;;;;5009397;28;20101;-75
2022/08/27 01:47:41;;;;;;;6.25;3.10;;;15.90;99.90;;;;;;5010719;28;20068;-75
2022/08/27 01:50:30;;;;;;;8.05;2.88;;;15.80;99.90;;;;;;5006704;28;20054;-75
2022/08/27 01:53:00;;;;;;;9.50;3.40;;;15.80;99.90;;;;;;5012284;28;20119;-76
2022/08/27 01:55:26;;;;;;;8.50;3.20;;;15.80;99.90;;;;;;5007895;28;20034;-76
2022/08/27 01:57:53;;;;;;;8.50;3.20;;;15.80;99.90;;;;;;5004297;28;20031;-75
2022/08/27 02:00:25;;;;;;;7.25;3.60;;;15.80;99.90;;;;;;5000523;28;20070;-74
2022/08/27 02:02:51;;;;;;;5.35;2.80;;;15.80;99.90;;;;;;5007664;28;20034;-75
2022/08/27 02:05:17;;;;;;;10.27;2.90;;;15.80;99.90;;;;;;5005814;28;20033;-75
2022/08/27 02:07:43;;;;;;;7.85;3.22;;;15.80;99.90;;;;;;5003486;28;20458;-75
2022/08/27 02:10:12;;;;;;;8.82;3.08;;;15.80;99.90;;;;;;5012094;28;20026;-74
2022/08/27 02:12:38;;;;;;;7.10;3.15;;;15.80;99.90;;;;;;5012257;28;20018;-76
2022/08/27 02:15:05;;;;;;;8.57;3.05;;;15.80;99.90;;;;;;5010558;28;20030;-75
2022/08/27 02:17:31;;;;;;;8.45;3.42;;;15.80;99.90;;;;;;5005306;28;20049;-75
2022/08/27 02:19:57;;;;;;;11.90;3.20;;;15.80;99.90;;;;;;5006127;28;20024;-75
2022/08/27 02:22:23;;;;;;;9.18;2.97;;;15.70;99.90;;;;;;5001958;28;20026;-73
2022/08/27 02:24:49;;;;;;;10.50;3.15;;;15.70;99.90;;;;;;5004247;28;20022;-76
2022/08/27 02:27:14;;;;;;;8.38;3.00;;;15.70;99.90;;;;;;4996804;28;20382;-75
2022/08/27 02:29:40;;;;;;;4.75;2.72;;;15.70;99.90;;;;;;5004543;28;20046;-75
2022/08/27 02:32:06;;;;;;;12.07;3.60;;;15.70;99.90;;;;;;5007590;28;20022;-74
2022/08/27 02:34:32;;;;;;;6.57;3.10;;;15.70;99.90;;;;;;5001073;28;20065;-75
2022/08/27 02:36:57;;;;;;;7.30;3.00;;;15.70;99.90;;;;;;5012538;28;20030;-74
2022/08/27 02:39:24;;;;;;;8.10;3.20;;;15.70;99.90;;;;;;5011928;28;20504;-74
2022/08/27 02:41:49;;;;;;;5.78;2.70;;;15.70;99.90;;;;;;5009556;28;20061;-75
2022/08/27 02:44:15;;;;;;;5.78;3.00;;;15.70;99.90;;;;;;5011088;28;20026;-75
2022/08/27 02:46:41;;;;;;;8.00;3.00;;;15.60;99.90;;;;;;5003124;28;20026;-74
2022/08/27 02:49:08;;;;;;;8.05;3.03;;;15.60;99.90;;;;;;4998927;28;20474;-75
2022/08/27 02:51:34;;;;;;;5.60;2.90;;;15.60;99.90;;;;;;4999737;28;20497;-74
2022/08/27 02:54:01;;;;;;;7.03;2.90;;;15.60;99.90;;;;;;5011750;28;20026;-75
2022/08/27 02:56:27;;;;;;;5.07;2.75;;;15.60;99.90;;;;;;5005733;28;20026;-75
2022/08/27 02:58:53;;;;;;;4.78;2.70;;;15.50;99.90;;;;;;4996950;28;20014;-74
2022/08/27 03:01:19;;;;;;;7.60;3.20;;;15.50;99.90;;;;;;4992309;28;20029;-74
2022/08/27 03:03:45;;;;;;;5.40;2.90;;;15.50;99.90;;;;;;5011639;28;20079;-74
2022/08/27 03:06:11;;;;;;;4.75;2.90;;;15.50;99.90;;;;;;5011431;28;20509;-74
2022/08/27 03:08:37;;;;;;;6.70;2.83;;;15.50;99.90;;;;;;5008727;28;20021;-74
2022/08/27 03:11:03;;;;;;;8.18;2.88;;;15.50;99.90;;;;;;4994026;28;20022;-74
2022/08/27 03:13:28;;;;;;;8.63;3.05;;;15.40;99.90;;;;;;5007046;28;20363;-74
2022/08/27 03:15:54;;;;;;;5.60;2.47;;;15.40;99.90;;;;;;5011111;28;20018;-74
2022/08/27 03:18:20;;;;;;;5.70;2.63;;;15.40;99.90;;;;;;5007955;28;20029;-74
2022/08/27 03:20:52;;;;;;;6.53;2.65;;;15.40;99.90;;;;;;5010615;28;20025;-74
2022/08/27 03:23:21;;;;;;;7.80;2.63;;;15.40;99.90;;;;;;5010564;28;20518;-75
2022/08/27 03:25:52;;;;;;;5.60;2.67;;;15.40;99.90;;;;;;5010716;28;20526;-74
2022/08/27 03:28:24;;;;;;;5.50;2.55;;;15.40;99.90;;;;;;5011402;28;20104;-74
2022/08/27 03:31:00;;;;;;;8.25;3.00;;;15.30;99.90;;;;;;5010931;28;20482;-76
2022/08/27 03:33:33;;;;;;;;;;;15.40;99.90;;;;;;5004897;28;20141;-74
2022/08/27 03:35:58;;;;;;;5.53;2.55;;;15.40;99.90;;;;;;5005445;28;20800;-75
2022/08/27 03:38:25;;;;;;;6.13;2.70;;;15.30;99.90;;;;;;4998353;28;20029;-74
2022/08/27 03:40:51;;;;;;;6.35;2.60;;;15.30;99.90;;;;;;5003053;28;20230;-74
2022/08/27 03:43:18;;;;;;;4.97;2.83;;;15.30;99.90;;;;;;5009390;28;20056;-76
2022/08/27 03:45:45;;;;;;;7.95;2.95;;;15.30;99.90;;;;;;5000554;28;20096;-74
2022/08/27 03:48:12;;;;;;;4.85;2.75;;;15.30;99.90;;;;;;4998552;28;20486;-75
2022/08/27 03:50:40;;;;;;;6.97;2.70;;;15.30;99.90;;;;;;5010976;28;20025;-74
2022/08/27 03:53:06;;;;;;;5.93;2.67;;;15.20;99.90;;;;;;5004457;28;20033;-74
2022/08/27 03:55:31;;;;;;;8.40;3.67;;;15.20;99.90;;;;;;5006882;28;20030;-74
2022/08/27 03:57:57;;;;;;;6.95;3.08;;;15.20;99.90;;;;;;5008433;28;20488;-75
2022/08/27 04:00:26;;;;;;;6.82;3.10;;;15.20;99.90;;;;;;5010710;28;20454;-74
2022/08/27 04:02:53;;;;;;;6.10;2.85;;;15.20;99.90;;;;;;5001048;28;20080;-75
2022/08/27 04:05:19;;;;;;;5.78;2.55;;;15.20;99.90;;;;;;5008841;28;20105;-74
2022/08/27 04:07:46;;;;;;;6.20;2.65;;;15.20;99.90;;;;;;5010889;28;20101;-74
2022/08/27 04:10:13;;;;;;;7.07;2.83;;;15.20;99.90;;;;;;4996820;28;20482;-75
2022/08/27 04:12:39;;;;;;;9.57;2.80;;;15.10;99.90;;;;;;5010118;28;20153;-76
2022/08/27 04:15:06;;;;;;;6.88;2.78;;;15.20;99.90;;;;;;5011266;28;20105;-75
2022/08/27 04:17:32;;;;;;;7.68;2.70;;;15.20;99.90;;;;;;5010146;28;20022;-75
2022/08/27 04:20:00;;;;;;;6.60;2.70;;;15.10;99.90;;;;;;5010813;28;20041;-75
2022/08/27 04:22:27;;;;;;;5.63;2.75;;;15.10;99.90;;;;;;5010408;28;20066;-75
2022/08/27 04:24:53;;;;;;;6.40;2.70;;;15.10;99.90;;;;;;5004149;28;20414;-74
2022/08/27 04:27:19;;;;;;;9.63;3.17;;;15.10;99.90;;;;;;4999539;28;20026;-74
2022/08/27 04:29:45;;;;;;;7.05;3.25;;;15.10;99.90;;;;;;5000700;28;20026;-75
2022/08/27 04:32:11;;;;;;;7.85;2.92;;;15.10;99.90;;;;;;4997596;28;20110;-74
2022/08/27 04:34:37;;;;;;;6.40;3.25;;;15.20;99.90;;;;;;5001704;28;20117;-74
2022/08/27 04:37:04;;;;;;;6.10;3.10;;;15.20;99.90;;;;;;5010867;28;20137;-74
2022/08/27 04:39:30;;;;;;;11.68;3.80;;;15.20;99.90;;;;;;5013512;28;20041;-75
2022/08/27 04:41:58;;;;;;;10.20;4.05;;;15.20;99.90;;;;;;5009610;28;20060;-75
2022/08/27 04:44:27;;;;;;;9.35;4.60;;;15.20;99.90;;;;;;5013737;28;20026;-75
2022/08/27 04:46:58;;;;;;;7.28;3.83;;;15.20;99.90;;;;;;5014719;28;20053;-74
2022/08/27 04:49:25;;;;;;;7.40;3.35;;;15.30;99.90;;;;;;5007392;28;20029;-76
2022/08/27 04:51:51;;;;;;;8.10;3.60;;;15.30;99.90;;;;;;5013629;28;20080;-76
2022/08/27 04:54:16;;;;;;;9.35;3.30;;;15.30;99.90;;;;;;5007543;28;20026;-75
2022/08/27 04:56:42;;;;;;;7.93;3.45;;;15.30;99.90;;;;;;5006372;28;20025;-74
2022/08/27 04:59:09;;;;;;;8.45;3.30;;;15.30;99.90;;;;;;5001255;28;20049;-74
2022/08/27 05:01:37;;;;;;;8.00;3.20;;;15.30;99.90;;;;;;5010650;28;20030;-75
2022/08/27 05:04:03;;;;;;;9.73;3.08;;;15.40;99.90;;;;;;5007922;28;20363;-74
2022/08/27 05:06:29;;;;;;;7.20;3.08;;;15.40;99.90;;;;;;5013698;28;20101;-75
2022/08/27 05:08:55;;;;;;;8.30;2.90;;;15.40;99.90;;;;;;5012154;28;20490;-74
2022/08/27 05:11:23;;;;;;;7.15;3.20;;;15.40;99.90;;;;;;5014142;28;20065;-74
2022/08/27 05:13:49;;;;;;;6.80;3.03;;;15.40;99.90;;;;;;5001809;28;20033;-75
2022/08/27 05:16:21;;;;;;;4.20;2.78;;;15.40;99.90;;;;;;5013129;28;20047;-75
2022/08/27 05:18:48;;;;;;;5.72;2.75;;;15.40;99.90;;;;;;5013311;28;20050;-74
2022/08/27 05:21:21;;;;;;;6.90;2.90;;;15.40;99.90;;;;;;5010929;28;20022;-76
2022/08/27 05:23:47;;;;;;;5.93;3.13;;;15.50;99.90;;;;;;4999434;28;20029;-74
2022/08/27 05:26:13;;;;;;;8.20;3.45;;;15.50;99.90;;;;;;5013484;28;20061;-73
2022/08/27 05:28:39;;;;;;;5.50;2.80;;;15.60;99.90;;;;;;5004516;28;20031;-75
2022/08/27 05:31:09;;;;;;;10.75;3.20;;;15.60;99.90;;;;;;5006821;28;20030;-74
2022/08/27 05:33:35;;;;;;;6.47;2.80;;;15.60;99.90;;;;;;5007269;28;20342;-74
2022/08/27 05:36:01;;;;;;;7.65;2.97;;;15.70;99.90;;;;;;5012965;28;20022;-75
2022/08/27 05:38:29;;;;;;;7.18;2.53;;;15.80;99.90;;;;;;5012084;28;20029;-75
2022/08/27 05:41:10;;;;;;;7.43;2.85;;;15.90;99.90;;;;;;5012989;28;20049;-76
2022/08/27 05:43:37;;;;;;;9.13;2.65;;;15.90;99.90;;;;;;5001987;28;20081;-77
2022/08/27 05:46:08;;;;;;;7.95;3.10;;;16.00;99.90;;;;;;4999471;28;20036;-76
2022/08/27 05:48:35;;;;;;;7.13;3.13;;;16.00;99.90;;;;;;5005487;28;20017;-75
2022/08/27 05:51:13;;;;;;;8.88;2.33;;;16.10;99.90;;;;;;5010751;28;20042;-75
2022/08/27 05:53:40;;;;;;;6.75;2.78;;;16.20;99.90;;;;;;5008525;28;20075;-75
2022/08/27 05:56:17;;;;;;;6.95;2.90;;;16.20;99.90;;;;;;5011258;28;20030;-75
2022/08/27 06:01:31;;;;;;;8.23;2.90;;;16.30;99.90;;;;;;5016845;28;20076;-78
2022/08/27 06:03:57;;;;;;;6.35;2.72;;;16.30;99.90;;;;;;5013640;28;20026;-76
2022/08/27 06:06:23;;;;;;;9.82;3.17;;;16.40;99.90;;;;;;5012097;28;20052;-74
2022/08/27 06:08:51;;;;;;;9.38;2.85;;;16.40;99.90;;;;;;5010669;28;20049;-74
2022/08/27 06:11:20;;;;;;;9.02;3.05;;;16.50;99.90;;;;;;5008989;28;20037;-75
2022/08/27 06:13:47;;;;;;;5.68;2.65;;;16.50;99.90;;;;;;5012604;28;20025;-74
2022/08/27 06:16:16;;;;;;;7.20;2.60;;;16.50;99.90;;;;;;5010884;28;20045;-74
2022/08/27 06:18:44;;;;;;;8.32;3.08;;;16.60;99.90;;;;;;5013314;28;20022;-75
2022/08/27 06:21:11;;;;;;;8.38;2.80;;;16.60;99.90;;;;;;5013281;28;20018;-74
2022/08/27 06:23:37;;;;;;;7.63;3.10;;;16.60;99.90;;;;;;5012067;28;20049;-74
2022/08/27 06:26:14;;;;;;;6.78;2.78;;;16.70;99.90;;;;;;5006584;28;20026;-74
2022/08/27 06:28:40;;;;;;;7.18;2.70;;;16.70;99.90;;;;;;5010094;28;20084;-74
2022/08/27 06:31:17;;;;;;;8.95;2.97;;;16.80;99.90;;;;;;5013912;28;20057;-75
2022/08/27 06:33:45;;;;;;;8.90;3.13;;;16.90;99.90;;;;;;5005062;28;20049;-74
2022/08/27 06:36:13;;;;;;;10.20;2.95;;;16.90;99.90;;;;;;5013981;28;20048;-74
2022/08/27 06:38:41;;;;;;;8.88;2.92;;;17.00;99.90;;;;;;5012387;28;20103;-75
2022/08/27 06:41:08;;;;;;;9.77;2.90;;;17.00;99.90;;;;;;5009747;28;20038;-75
2022/08/27 06:43:37;;;;;;;5.50;2.75;;;17.10;99.90;;;;;;5009868;28;20478;-74
2022/08/27 06:46:05;;;;;;;10.90;3.00;;;17.20;99.90;;;;;;5016329;28;20506;-78
2022/08/27 06:48:31;;;;;;;6.75;2.97;;;17.30;99.90;;;;;;5009646;28;20037;-78
2022/08/27 06:50:57;;;;;;;10.70;3.00;;;17.40;99.90;;;;;;5017447;28;20084;-78
2022/08/27 06:53:23;;;;;;;10.60;2.88;;;17.50;99.90;;;;;;5016373;28;20026;-78
2022/08/27 06:55:49;;;;;;;6.80;3.03;;;17.60;99.90;;;;;;5012644;28;20047;-78
2022/08/27 06:58:16;;;;;;;7.68;3.20;;;17.70;99.90;;;;;;5015632;28;20022;-78
2022/08/27 07:00:42;;;;;;;8.50;3.17;;;17.70;99.90;;;;;;5007081;28;20034;-78
2022/08/27 07:03:09;;;;;;;10.20;2.97;;;17.70;99.90;;;;;;5013167;28;20038;-78
2022/08/27 07:05:37;;;;;;;7.03;3.10;;;17.80;99.90;;;;;;5015225;28;20021;-78
2022/08/27 07:08:04;;;;;;;8.27;3.28;;;17.90;99.90;;;;;;5006964;28;20037;-78
2022/08/27 07:10:30;;;;;;;11.68;3.72;;;17.90;99.90;;;;;;5005515;28;20030;-77
2022/08/27 07:12:56;;;;;;;8.10;3.30;;;18.00;99.90;;;;;;5009147;28;20040;-78
2022/08/27 07:15:23;;;;;;;6.88;2.95;;;18.00;99.90;;;;;;5010401;28;20033;-78
2022/08/27 07:17:49;;;;;;;10.10;3.17;;;18.10;99.90;;;;;;5009535;28;20014;-78
2022/08/27 07:20:16;;;;;;;10.93;4.20;;;18.10;99.90;;;;;;5004273;28;20022;-78
2022/08/27 07:22:43;;;;;;;9.60;3.60;;;18.20;99.90;;;;;;5002282;28;20038;-78
2022/08/27 07:25:11;;;;;;;9.75;3.22;;;18.20;99.90;;;;;;5005413;28;20242;-78
2022/08/27 07:27:38;;;;;;;12.43;3.65;;;18.30;99.90;;;;;;5011218;28;20018;-78
2022/08/27 07:30:05;;;;;;;7.20;3.20;;;18.40;99.90;;;;;;5011465;28;20022;-78
2022/08/27 07:32:31;;;;;;;8.20;3.15;;;18.40;99.90;;;;;;5011165;28;20026;-78
2022/08/27 07:34:56;;;;;;;11.65;3.22;;;18.50;99.90;;;;;;5012220;28;20072;-77
2022/08/27 07:37:22;;;;;;;10.73;3.20;;;18.60;99.90;;;;;;5002731;28;20474;-78
2022/08/27 07:39:47;;;;;;;9.93;3.83;;;18.60;99.90;;;;;;5010567;28;20064;-78
2022/08/27 07:44:57;;;;;;;5.93;2.97;;;18.80;99.90;;;;;;5011306;28;20100;-77
2022/08/27 07:47:23;;;;;;;5.43;2.47;;;18.80;99.90;;;;;;5011000;28;20034;-77
2022/08/27 07:49:49;;;;;;;6.05;3.20;;;18.90;99.90;;;;;;5005490;28;20463;-78
2022/08/27 07:52:16;;;;;;;9.00;3.22;;;19.00;99.90;;;;;;5006473;28;20422;-73
2022/08/27 07:54:42;;;;;;;12.65;3.20;;;19.00;99.90;;;;;;5006037;28;20073;-74
2022/08/27 07:57:09;;;;;;;5.72;2.53;;;19.10;99.90;;;;;;5006688;28;20051;-73
2022/08/27 07:59:35;;;;;;;6.18;2.70;;;19.20;99.90;;;;;;5010936;28;20022;-75
2022/08/27 08:02:00;;;;;;;4.50;2.85;;;19.30;99.90;;;;;;5003663;28;20028;-74
2022/08/27 08:04:26;;;;;;;7.03;2.95;;;19.30;99.90;;;;;;5001426;28;20113;-73
2022/08/27 08:06:53;;;;;;;6.85;3.10;;;19.40;99.90;;;;;;4996643;28;20525;-73
2022/08/27 08:09:20;;;;;;;6.07;2.53;;;19.50;99.90;;;;;;4999585;28;20022;-74
2022/08/27 08:11:46;;;;;;;5.30;2.58;;;19.60;99.90;;;;;;5008685;28;20030;-75
2022/08/27 08:14:12;;;;;;;8.38;2.70;;;19.70;99.90;;;;;;5005770;28;20386;-74
2022/08/27 08:16:38;;;;;;;5.57;2.40;;;19.70;99.90;;;;;;5010729;28;20026;-73
2022/08/27 08:19:03;;;;;;;5.28;2.33;;;19.80;99.90;;;;;;5010323;28;20410;-74
2022/08/27 08:21:29;;;;;;;8.90;2.58;;;19.90;99.90;;;;;;5006515;28;20041;-74
2022/08/27 08:23:55;;;;;;;7.28;2.75;;;19.90;99.90;;;;;;5008832;28;20024;-75
2022/08/27 08:26:20;;;;;;;8.10;2.50;;;20.00;99.90;;;;;;5008997;28;20022;-74
2022/08/27 08:28:46;;;;;;;6.70;2.50;;;20.10;99.90;;;;;;5011398;28;20049;-74
2022/08/27 08:31:12;;;;;;;4.68;2.10;;;20.20;99.90;;;;;;5009240;28;20269;-73
2022/08/27 08:33:38;;;;;;;7.78;2.75;;;20.20;99.90;;;;;;4999430;28;20528;-72
2022/08/27 08:36:10;;;;;;;6.85;2.75;;;20.30;99.90;;;;;;5004412;28;20133;-75
2022/08/27 08:38:36;;;;;;;5.78;3.00;;;20.40;99.90;;;;;;5003765;28;20053;-74
2022/08/27 08:41:04;;;;;;;7.20;2.60;;;20.50;99.90;;;;;;4997112;28;20025;-73
2022/08/27 08:43:41;;;;;;;7.05;3.35;;;20.50;99.90;;;;;;5001218;28;20053;-72
2022/08/27 08:46:20;;;;;;;7.28;2.80;;;20.70;99.90;;;;;;5010012;28;20114;-74
2022/08/27 08:48:50;;;;;;;8.07;3.00;;;20.80;99.90;;;;;;5009511;28;20108;-73
2022/08/27 08:51:31;;;;;;;6.65;2.60;;;20.90;99.90;;;;;;5010392;28;20025;-74
2022/08/27 08:54:17;;;;;;;6.38;2.28;;;21.00;99.90;;;;;;5003713;28;20022;-74
2022/08/27 08:56:48;;;;;;;;;;;21.10;99.90;;;;;;5003582;28;20022;-73
2022/08/27 08:59:37;;;;;;;3.63;1.77;;;21.20;99.90;;;;;;5007078;28;19905;-74
2022/08/27 09:02:08;;;;;;;7.88;1.85;;;21.30;99.90;;;;;;5001214;28;20406;-74
2022/08/27 09:04:34;;;;;;;8.30;1.85;;;21.30;99.90;;;;;;4996789;28;20094;-74
2022/08/27 09:07:26;;;;;;;6.55;1.83;;;21.40;99.90;;;;;;5008427;28;20022;-74
2022/08/27 09:10:13;;;;;;;6.88;1.80;;;21.40;99.90;;;;;;4999879;28;20046;-74
2022/08/27 09:12:40;;;;;;;4.10;1.90;;;21.50;99.90;;;;;;5009969;28;20075;-74
2022/08/27 09:15:15;;;;;;;3.97;1.90;;;21.50;99.90;;;;;;5009291;28;20105;-74
2022/08/27 09:17:40;;;;;;;;;;;21.60;99.90;;;;;;5006081;28;20316;-75
2022/08/27 09:20:07;;;;;;;4.30;1.60;;;21.60;99.90;;;;;;5003783;28;19909;-75
2022/08/27 09:22:52;;;;;;;3.20;1.40;;;21.70;99.90;;;;;;4999689;28;20034;-74
2022/08/27 09:25:28;;;;;;;3.17;1.33;;;21.70;99.90;;;;;;5011731;28;20033;-73
2022/08/27 09:27:57;;;;;;;5.80;1.73;;;21.70;99.90;;;;;;5002686;28;20144;-74
2022/08/27 09:30:25;;;;;;;4.35;1.77;;;21.60;99.90;;;;;;5012794;28;20045;-75
2022/08/27 09:32:56;;;;;;;5.00;1.83;;;21.60;99.50;;;;;;5012358;28;20021;-74
2022/08/27 09:35:25;;;;;;;5.05;1.70;;;21.50;99.40;;;;;;5000839;28;20031;-75
2022/08/27 09:37:53;;;;;;;6.45;1.95;;;21.50;99.30;;;;;;5011587;28;20049;-74
2022/08/27 09:40:25;;;;;;;5.68;1.77;;;21.50;99.30;;;;;;5013886;28;20014;-74
2022/08/27 09:42:54;;;;;;;4.28;1.73;;;21.50;98.90;;;;;;5007915;28;20092;-74
2022/08/27 09:45:28;;;;;;;4.60;1.40;;;21.50;98.70;;;;;;5010760;28;20021;-75
2022/08/27 09:48:04;;;;;;;6.45;1.73;;;21.40;98.50;;;;;;5012348;28;20017;-74
2022/08/27 09:50:44;;;;;;;5.30;1.58;;;21.40;98.60;;;;;;5001460;28;20117;-74
2022/08/27 09:53:24;;;;;;;4.95;1.70;;;21.40;98.70;;;;;;5012828;28;20026;-74
2022/08/27 09:55:59;;;;;;;4.57;1.50;;;21.40;98.70;;;;;;5013552;28;20080;-76
2022/08/27 09:58:33;;;;;;;5.40;1.67;;;21.50;98.60;;;;;;5004260;28;20030;-74
2022/08/27 10:01:15;;;;;;;3.38;1.50;;;21.50;98.40;;;;;;5004616;28;20022;-76
2022/08/27 10:03:42;;;;;;;5.10;1.70;;;21.50;98.40;;;;;;5013137;28;20736;-75
2022/08/27 10:06:08;;;;;;;4.32;1.60;;;21.50;98.40;;;;;;5003571;28;20089;-76
2022/08/27 10:08:47;;;;;;;4.53;1.30;;;21.50;98.40;;;;;;5009780;28;20104;-74
2022/08/27 10:11:18;;;;;;;8.25;1.77;;;21.60;98.00;;;;;;5012795;28;20509;-73
2022/08/27 10:14:06;;;;;;;5.07;1.52;;;21.60;97.80;;;;;;5013001;28;20044;-73
2022/08/27 10:16:56;;;;;;;5.65;1.52;;;21.70;97.80;;;;;;5013058;28;20456;-74
2022/08/27 10:19:40;;;;;;;5.93;1.30;;;21.80;97.80;;;;;;5008942;28;20421;-74
2022/08/27 10:22:43;;;;;;;4.63;1.70;;;22.00;97.10;;;;;;5009538;28;20034;-74
2022/08/27 10:25:33;;;;;;;4.65;1.30;;;22.00;96.30;;;;;;5006064;28;20022;-73
2022/08/27 10:28:09;;;;;;;9.57;1.70;;;22.10;96.00;;;;;;5002070;28;20026;-74
2022/08/27 10:30:58;;;;;;;6.05;1.60;;;22.10;95.90;;;;;;5010200;28;20435;-74
2022/08/27 10:33:34;;;;;;;4.50;1.70;;;22.10;95.70;;;;;;5006815;28;20093;-73
2022/08/27 10:36:15;;;;;;;3.20;1.42;;;22.20;95.80;;;;;;5012244;28;20022;-75
2022/08/27 10:38:54;;;;;;;5.97;1.42;;;22.30;95.90;;;;;;5009758;28;20022;-74
2022/08/27 10:41:48;;;;;;;4.20;1.23;;;22.50;95.90;;;;;;5001244;28;20034;-74
2022/08/27 10:44:25;;;;;;;4.97;1.35;;;22.60;95.20;;;;;;5010837;28;20046;-73
2022/08/27 10:47:14;;;;;;;4.03;1.42;;;22.80;94.90;;;;;;4995003;28;20498;-74
2022/08/27 10:49:45;;;;;;;5.20;1.48;;;22.80;94.30;;;;;;5010112;28;20026;-74
2022/08/27 10:52:33;;;;;;;4.72;1.55;;;22.70;94.20;;;;;;5011881;28;20193;-75
2022/08/27 10:55:18;;;;;;;5.97;1.55;;;22.70;94.30;;;;;;5012116;28;20033;-75
2022/08/27 10:57:52;;;;;;;4.30;1.50;;;22.80;94.20;;;;;;4999564;28;20351;-75
2022/08/27 11:00:21;;;;;;;3.30;1.43;;;22.80;94.10;;;;;;5009178;28;20462;-73
2022/08/27 11:02:50;;;;;;;5.55;1.58;;;22.80;93.70;;;;;;4994116;28;20649;-74
2022/08/27 11:05:33;;;;;;;5.50;1.60;;;22.80;93.50;;;;;;4998837;28;20025;-74
2022/08/27 11:08:14;;;;;;;6.80;1.60;;;22.80;93.60;;;;;;5016888;28;20037;-75
2022/08/27 11:10:55;;;;;;;5.63;1.58;;;22.80;93.90;;;;;;5009766;28;20018;-74
2022/08/27 11:13:58;;;;;;;5.35;1.58;;;23.00;94.00;;;;;;5011010;28;20552;-74
2022/08/27 11:16:34;;;;;;;7.25;1.98;;;23.00;93.50;;;;;;5003748;28;20102;-73
2022/08/27 11:19:25;;;;;;;3.70;1.60;;;23.10;93.20;;;;;;5005359;28;20030;-75
2022/08/27 11:22:00;;;;;;;7.55;1.40;;;23.20;92.80;;;;;;5009296;28;20041;-74
2022/08/27 11:24:56;;;;;;;5.30;1.35;;;23.20;92.80;;;;;;5016118;28;20030;-75
2022/08/27 11:27:24;;;;;;;6.85;1.67;;;23.40;92.00;;;;;;5006654;28;20077;-74
2022/08/27 11:29:55;;;;;;;3.08;1.20;;;23.40;91.20;;;;;;5011421;28;20017;-73
2022/08/27 11:32:21;;;;;;;6.30;1.70;;;23.50;91.20;;;;;;5014833;28;20048;-75
2022/08/27 11:34:58;;;;;;;5.60;1.67;;;23.50;90.90;;;;;;5010626;28;20026;-75
2022/08/27 11:37:40;;;;;;;5.97;1.60;;;23.60;90.90;;;;;;5013710;28;20486;-75
2022/08/27 11:40:27;;;;;;;5.78;1.67;;;23.70;90.30;;;;;;5012757;28;20058;-76
2022/08/27 11:43:02;;;;;;;5.10;1.52;;;23.70;90.50;;;;;;5015532;28;20058;-75
2022/08/27 11:45:40;;;;;;;4.68;1.50;;;23.70;90.30;;;;;;5004343;28;20130;-76
2022/08/27 11:48:32;;;;;;;5.43;1.50;;;23.80;90.20;;;;;;5006770;28;20026;-77
2022/08/27 11:51:13;;;;;;;5.88;1.70;;;23.80;90.10;;;;;;5011694;28;20191;-79
2022/08/27 11:53:57;;;;;;;6.90;1.48;;;23.80;90.00;;;;;;5027578;28;20064;-74
2022/08/27 11:56:28;;;;;;;5.10;1.48;;;23.70;89.90;;;;;;5003148;28;20045;-76
2022/08/27 11:58:54;;;;;;;5.82;1.80;;;23.50;89.50;;;;;;5008946;28;20141;-75
2022/08/27 12:01:27;;;;;;;6.75;1.80;;;23.50;89.80;;;;;;5013011;28;20034;-74
2022/08/27 12:04:05;;;;;;;4.78;1.40;;;23.40;90.10;;;;;;5015032;28;20058;-76
2022/08/27 12:06:43;;;;;;;8.23;1.50;;;23.40;90.30;;;;;;5011066;28;20478;-74
2022/08/27 12:09:21;;;;;;;5.72;1.65;;;23.20;90.80;;;;;;5008722;28;20049;-74
2022/08/27 12:12:07;;;;;;;6.85;1.80;;;23.20;91.30;;;;;;5009618;28;20337;-73
2022/08/27 12:14:56;;;;;;;7.05;1.60;;;23.00;91.00;;;;;;5012541;28;20105;-73
2022/08/27 12:17:57;;;;;;;7.68;1.80;;;22.90;91.40;;;;;;5009767;28;20029;-73
2022/08/27 12:20:44;;;;;;;6.85;1.63;;;22.90;91.50;;;;;;5020978;28;20383;-73
2022/08/27 12:26:29;;;;;;;4.22;1.55;;;22.80;91.70;;;;;;5004670;28;20060;-77
2022/08/27 12:29:32;;;;;;;7.78;1.88;;;22.70;91.30;;;;;;4999138;28;20367;-75
2022/08/27 12:32:25;;;;;;;4.55;1.45;;;22.50;91.90;;;;;;5012089;28;20018;-74
2022/08/27 12:35:18;;;;;;;4.78;1.58;;;22.50;91.80;;;;;;5017909;28;20046;-74
2022/08/27 12:37:49;;;;;;;6.97;1.75;;;22.60;91.90;;;;;;5012571;28;20109;-74
2022/08/27 12:40:27;;;;;;;6.25;1.63;;;22.50;91.80;;;;;;5010866;28;20026;-74
2022/08/27 12:43:26;;;;;;;4.32;1.20;;;22.50;91.80;;;;;;4999571;28;20103;-74
2022/08/27 12:45:59;;;;;;;7.30;1.58;;;22.50;92.00;;;;;;4987687;28;20045;-75
2022/08/27 12:48:39;;;;;;;5.68;1.75;;;22.60;91.90;;;;;;5014672;28;20053;-75
2022/08/27 12:51:12;;;;;;;6.65;1.50;;;22.60;92.00;;;;;;5013304;28;20037;-74
2022/08/27 12:53:49;;;;;;;8.95;1.70;;;22.70;91.50;;;;;;5014883;28;20045;-75
2022/08/27 12:56:24;;;;;;;6.05;1.52;;;22.70;91.50;;;;;;5002045;28;20334;-74
2022/08/27 12:58:54;;;;;;;4.05;1.50;;;22.60;91.60;;;;;;5010326;28;20025;-74
2022/08/27 13:01:42;;;;;;;5.60;1.42;;;22.60;91.40;;;;;;5018433;28;20517;-74
2022/08/27 13:04:21;;;;;;;6.60;1.58;;;22.50;91.40;;;;;;5006718;28;20049;-75
2022/08/27 13:06:48;;;;;;;6.35;1.65;;;22.60;91.90;;;;;;5002478;28;20037;-75
2022/08/27 13:09:13;;;;;;;8.85;1.50;;;22.80;91.80;;;;;;5013833;28;20141;-75
2022/08/27 13:11:47;;;;;;;3.60;1.40;;;22.80;91.80;;;;;;5013435;28;20104;-74
2022/08/27 13:14:19;;;;;;;5.03;1.40;;;22.70;92.00;;;;;;5009427;28;20027;-75
2022/08/27 13:17:09;;;;;;;9.43;2.03;;;22.70;92.10;;;;;;5008151;28;20509;-74